Terminal Aerodrome Forecast
Issued by NWS Sioux Falls, SD

Home | Current Version | Previous Version | Text Only | Print | Product List | Glossary On
Versions: 1 2 3 4 5 6 7 8 9 10 11 12 13 14
000
FTUS43 KFSD 201120
TAFSUX
TAF
KSUX 201120Z 2012/2112 19004KT P6SM FEW250
     FM201600 31010KT P6SM FEW250
     FM202000 34010KT P6SM FEW250
     FM210000 02007KT P6SM SCT200
     FM210500 09004KT P6SM SCT200=

USA.gov is the U.S. government's official web portal to all federal, state and local government web resources and services.